createdAt,value
2019-05-06T00:02:01.464Z,4.50
2019-05-06T00:04:30.125Z,4.57
2019-05-06T00:06:58.635Z,4.17
2019-05-06T00:12:08.887Z,4.30
2019-05-06T00:14:37.395Z,4.37
2019-05-06T00:17:06.083Z,4.40
2019-05-06T00:19:34.761Z,4.00
2019-05-06T00:22:04.791Z,4.23
2019-05-06T00:24:35.028Z,4.40
2019-05-06T00:27:14.341Z,5.87
2019-05-06T00:29:43.857Z,3.77
2019-05-06T00:32:15.051Z,5.00
2019-05-06T00:34:43.745Z,5.30
2019-05-06T00:37:14.461Z,5.50
2019-05-06T00:39:53.898Z,5.43
2019-05-06T00:42:27.003Z,5.40
2019-05-06T00:44:55.568Z,5.40
2019-05-06T00:47:24.607Z,4.83
2019-05-06T00:49:54.660Z,5.03
2019-05-06T00:52:25.829Z,4.80
2019-05-06T00:54:54.668Z,4.50
2019-05-06T00:57:25.119Z,5.00
2019-05-06T00:59:53.929Z,4.80
2019-05-06T01:02:23.475Z,4.53
2019-05-06T01:04:54.003Z,4.70
2019-05-06T01:07:23.664Z,5.00
2019-05-06T01:09:54.160Z,5.70
2019-05-06T01:12:23.988Z,5.70
2019-05-06T01:14:54.615Z,6.10
2019-05-06T01:17:24.341Z,5.70
2019-05-06T01:19:54.139Z,5.70
2019-05-06T01:22:24.630Z,5.80
2019-05-06T01:24:52.923Z,5.50
2019-05-06T01:27:21.416Z,5.77
2019-05-06T01:29:49.934Z,5.30
2019-05-06T01:32:18.426Z,5.50
2019-05-06T01:34:46.950Z,6.17
2019-05-06T01:40:11.445Z,6.20
2019-05-06T01:42:47.230Z,6.63
2019-05-06T01:45:16.050Z,6.17
2019-05-06T01:47:44.556Z,5.63
2019-05-06T01:50:14.023Z,6.00
2019-05-06T01:52:44.280Z,6.23
2019-05-06T01:55:14.186Z,5.83
2019-05-06T01:57:44.428Z,5.50
2019-05-06T02:00:14.073Z,5.73
2019-05-06T02:02:43.871Z,5.70
2019-05-06T02:05:13.843Z,5.40
2019-05-06T02:07:44.186Z,5.40
2019-05-06T02:10:14.182Z,5.33
2019-05-06T02:12:44.359Z,4.97
2019-05-06T02:15:14.591Z,5.83
2019-05-06T02:17:44.082Z,4.77
2019-05-06T02:20:13.861Z,5.87
2019-05-06T02:22:46.973Z,6.27
2019-05-06T02:25:24.449Z,6.47
2019-05-06T02:27:54.143Z,5.90
2019-05-06T02:30:36.442Z,5.77
2019-05-06T02:33:15.362Z,5.07
2019-05-06T02:36:01.279Z,5.10
2019-05-06T02:38:39.682Z,5.17
2019-05-06T02:41:03.691Z,5.50
2019-05-06T02:43:34.389Z,5.20
2019-05-06T02:46:04.251Z,5.13
2019-05-06T02:48:43.457Z,5.10
2019-05-06T02:51:13.670Z,5.53
2019-05-06T02:53:42.915Z,5.20
2019-05-06T02:56:13.408Z,5.13
2019-05-06T02:58:43.739Z,5.33
2019-05-06T03:01:13.576Z,6.30
2019-05-06T03:03:43.587Z,5.83
2019-05-06T03:06:13.121Z,5.63
2019-05-06T03:08:43.424Z,5.10
2019-05-06T03:11:13.565Z,5.77
2019-05-06T03:13:43.695Z,5.70
2019-05-06T03:16:14.231Z,4.93
2019-05-06T03:18:43.453Z,4.90
2019-05-06T03:21:24.717Z,5.33
2019-05-06T03:23:57.216Z,5.30
2019-05-06T03:26:25.776Z,5.30
2019-05-06T03:28:54.259Z,5.00
2019-05-06T03:31:26.092Z,4.93
2019-05-06T03:34:17.129Z,5.83
2019-05-06T03:36:27.251Z,5.67
2019-05-06T03:38:53.990Z,7.20
2019-05-06T03:41:23.353Z,6.10
2019-05-06T03:43:54.288Z,5.97
2019-05-06T03:46:42.844Z,5.97
2019-05-06T03:49:13.485Z,5.60
2019-05-06T03:51:42.946Z,6.10
2019-05-06T03:54:12.975Z,6.37
2019-05-06T03:56:43.282Z,5.90
2019-05-06T03:59:15.289Z,6.57
2019-05-06T04:01:43.794Z,6.73
2019-05-06T04:04:12.977Z,7.60
2019-05-06T04:06:43.625Z,6.63
2019-05-06T04:09:13.269Z,6.57
2019-05-06T04:11:43.360Z,6.87
2019-05-06T04:14:14.030Z,6.60
2019-05-06T04:16:47.390Z,5.97
2019-05-06T04:19:17.848Z,6.20
2019-05-06T04:21:59.953Z,7.37
2019-05-06T04:24:34.200Z,7.73
2019-05-06T04:27:38.434Z,7.80
2019-05-06T04:30:07.052Z,7.03
2019-05-06T04:32:35.614Z,7.70
2019-05-06T04:35:04.832Z,7.60
2019-05-06T04:37:34.052Z,7.50
2019-05-06T04:40:04.464Z,9.13
2019-05-06T04:42:34.473Z,7.37
2019-05-06T04:45:04.576Z,8.30
2019-05-06T04:47:36.425Z,8.90
2019-05-06T04:50:07.273Z,8.63
2019-05-06T04:52:35.905Z,8.10
2019-05-06T04:55:05.371Z,9.33
2019-05-06T04:57:33.988Z,8.63
2019-05-06T05:00:04.179Z,8.97
2019-05-06T05:02:33.875Z,8.83
2019-05-06T05:05:04.277Z,8.23
2019-05-06T05:07:33.502Z,7.70
2019-05-06T05:10:03.950Z,8.23
2019-05-06T05:12:34.247Z,8.10
2019-05-06T05:15:04.504Z,9.47
2019-05-06T05:17:42.107Z,8.73
2019-05-06T05:20:12.652Z,8.57
2019-05-06T05:22:42.357Z,8.47
2019-05-06T05:25:12.236Z,7.67
2019-05-06T05:27:42.149Z,9.73
2019-05-06T05:30:12.445Z,9.57
2019-05-06T05:32:42.859Z,9.40
2019-05-06T05:35:12.775Z,9.90
2019-05-06T05:37:41.969Z,8.53
2019-05-06T05:40:12.805Z,9.17
2019-05-06T05:42:45.735Z,9.53
2019-05-06T05:45:14.363Z,9.30
2019-05-06T05:47:43.091Z,8.87
2019-05-06T05:50:13.425Z,8.30
2019-05-06T05:52:42.737Z,7.83
2019-05-06T05:55:12.153Z,8.30
2019-05-06T05:57:43.115Z,7.20
2019-05-06T06:00:12.913Z,7.20
2019-05-06T06:02:43.666Z,7.17
2019-05-06T06:05:12.475Z,7.60
2019-05-06T06:07:42.219Z,8.00
2019-05-06T06:10:12.928Z,7.00
2019-05-06T06:12:42.929Z,6.73
2019-05-06T06:15:13.481Z,6.37
2019-05-06T06:17:51.902Z,7.40
2019-05-06T06:20:37.844Z,7.50
2019-05-06T06:23:08.114Z,6.80
2019-05-06T06:25:36.972Z,7.50
2019-05-06T06:28:05.724Z,6.57
2019-05-06T06:30:54.270Z,7.17
2019-05-06T06:33:22.920Z,8.57
2019-05-06T06:35:55.899Z,9.00
2019-05-06T06:38:26.082Z,8.40
2019-05-06T06:40:55.693Z,9.40
2019-05-06T06:43:26.400Z,9.07
2019-05-06T06:45:55.131Z,9.40
2019-05-06T06:48:24.312Z,9.17
2019-05-06T06:50:54.154Z,9.40
2019-05-06T06:53:22.656Z,9.20
2019-05-06T06:55:52.829Z,8.87
2019-05-06T06:58:23.509Z,8.33
2019-05-06T07:01:12.364Z,9.10
2019-05-06T07:03:43.137Z,7.80
2019-05-06T07:06:14.575Z,8.63
2019-05-06T07:08:43.067Z,7.63
2019-05-06T07:11:13.041Z,8.37
2019-05-06T07:13:44.664Z,7.63
2019-05-06T07:16:13.176Z,7.23
2019-05-06T07:18:42.710Z,8.57
2019-05-06T07:21:13.991Z,8.63
2019-05-06T07:23:42.671Z,7.67
2019-05-06T07:26:12.832Z,7.87
2019-05-06T07:28:43.602Z,9.00
2019-05-06T07:31:21.795Z,7.73
2019-05-06T07:33:42.866Z,8.17
2019-05-06T07:36:13.036Z,7.93
2019-05-06T07:38:43.545Z,8.23
2019-05-06T07:41:15.135Z,8.43
2019-05-06T07:43:45.421Z,8.47
2019-05-06T07:46:33.106Z,7.67
2019-05-06T07:49:03.354Z,8.07
2019-05-06T07:51:32.550Z,8.43
2019-05-06T07:54:02.783Z,8.13
2019-05-06T07:56:32.179Z,7.80
2019-05-06T07:59:09.628Z,7.50
2019-05-06T08:01:43.754Z,8.13
2019-05-06T08:04:12.196Z,9.50
2019-05-06T08:06:42.753Z,7.63
2019-05-06T08:09:13.011Z,7.40
2019-05-06T08:11:42.257Z,6.80
2019-05-06T08:14:13.073Z,7.13
2019-05-06T08:16:44.477Z,6.60
2019-05-06T08:19:13.111Z,6.00
2019-05-06T08:21:43.334Z,6.10
2019-05-06T08:24:12.072Z,6.20
2019-05-06T08:26:42.732Z,5.60
2019-05-06T08:29:12.156Z,6.30
2019-05-06T08:31:43.100Z,6.00
2019-05-06T08:34:12.270Z,6.17
2019-05-06T08:36:42.812Z,6.20
2019-05-06T08:39:13.040Z,6.10
2019-05-06T08:41:42.368Z,6.50
2019-05-06T08:44:12.753Z,5.87
2019-05-06T08:46:43.119Z,5.43
2019-05-06T08:49:12.269Z,5.40
2019-05-06T08:51:57.428Z,4.57
2019-05-06T08:54:32.343Z,5.17
2019-05-06T08:57:02.471Z,4.83
2019-05-06T08:59:32.079Z,5.20
2019-05-06T09:02:03.127Z,5.97
2019-05-06T09:04:32.152Z,5.57
2019-05-06T09:07:02.790Z,5.10
2019-05-06T09:09:32.615Z,5.23
2019-05-06T09:12:02.702Z,5.80
2019-05-06T09:14:32.690Z,5.70
2019-05-06T09:17:02.839Z,5.57
2019-05-06T09:19:33.200Z,5.27
2019-05-06T09:22:02.496Z,4.80
2019-05-06T09:24:32.104Z,5.20
2019-05-06T09:27:02.958Z,5.53
2019-05-06T09:29:42.997Z,4.93
2019-05-06T09:32:15.913Z,5.13
2019-05-06T09:34:46.096Z,4.77
2019-05-06T09:37:15.563Z,5.37
2019-05-06T09:39:45.266Z,5.00
2019-05-06T09:42:14.205Z,5.90
2019-05-06T09:44:44.238Z,5.30
2019-05-06T09:47:17.649Z,5.17
2019-05-06T09:49:54.920Z,4.60
2019-05-06T09:52:23.502Z,4.43
2019-05-06T09:54:53.794Z,4.17
2019-05-06T09:57:29.873Z,3.63
2019-05-06T09:59:58.599Z,4.23
2019-05-06T10:02:27.088Z,3.77
2019-05-06T10:04:55.636Z,4.17
2019-05-06T10:07:24.230Z,4.87
2019-05-06T10:09:52.860Z,4.83
2019-05-06T10:12:21.405Z,4.70
2019-05-06T10:14:50.031Z,4.90
2019-05-06T10:17:18.680Z,4.00
2019-05-06T10:19:47.324Z,4.30
2019-05-06T10:22:15.792Z,4.47
2019-05-06T10:24:44.316Z,4.67
2019-05-06T10:27:12.889Z,4.43
2019-05-06T10:29:43.364Z,4.23
2019-05-06T10:32:13.692Z,3.63
2019-05-06T10:34:43.448Z,4.10
2019-05-06T10:37:19.802Z,3.47
2019-05-06T10:39:53.049Z,3.40
2019-05-06T10:42:24.609Z,3.40
2019-05-06T10:45:08.148Z,2.80
2019-05-06T10:47:36.652Z,2.90
2019-05-06T10:50:06.086Z,2.90
2019-05-06T10:52:36.299Z,2.70
2019-05-06T10:55:05.933Z,2.37
2019-05-06T10:57:36.059Z,2.40
2019-05-06T11:00:07.096Z,2.33
2019-05-06T11:02:52.471Z,2.27
2019-05-06T11:05:21.150Z,2.60
2019-05-06T11:07:52.022Z,2.40
2019-05-06T11:10:27.678Z,2.20
2019-05-06T11:12:52.339Z,2.30
2019-05-06T11:15:23.345Z,2.53
2019-05-06T11:17:51.237Z,2.10
2019-05-06T11:20:19.959Z,2.40
2019-05-06T11:22:48.482Z,2.40
2019-05-06T11:25:17.116Z,2.30
2019-05-06T11:27:45.616Z,2.47
2019-05-06T11:30:33.152Z,2.13
2019-05-06T11:33:19.456Z,2.00
2019-05-06T11:36:07.817Z,2.50
2019-05-06T11:38:36.317Z,2.90
2019-05-06T11:41:04.949Z,2.83
2019-05-06T11:43:33.428Z,2.87
2019-05-06T11:46:01.944Z,2.77
2019-05-06T11:48:32.622Z,2.60
2019-05-06T11:51:02.268Z,2.63
2019-05-06T11:53:32.590Z,2.40
2019-05-06T11:56:02.158Z,3.13
2019-05-06T11:58:50.229Z,2.90
2019-05-06T12:01:20.460Z,3.10
2019-05-06T12:03:48.945Z,3.33
2019-05-06T12:06:17.513Z,3.10
2019-05-06T12:08:46.097Z,3.60
2019-05-06T12:11:14.679Z,3.10
2019-05-06T12:13:44.331Z,3.20
2019-05-06T12:16:14.207Z,2.80
2019-05-06T12:18:42.894Z,3.30
2019-05-06T12:21:18.475Z,3.40
2019-05-06T12:23:44.855Z,3.30
2019-05-06T12:26:13.211Z,3.07
2019-05-06T12:28:43.449Z,3.03
2019-05-06T12:31:12.708Z,3.13
2019-05-06T12:33:43.010Z,3.30
2019-05-06T12:36:14.697Z,3.00
2019-05-06T12:39:06.411Z,3.00
2019-05-06T12:41:33.340Z,2.93
2019-05-06T12:44:03.141Z,2.87
2019-05-06T12:46:38.968Z,3.00
2019-05-06T12:49:07.449Z,2.37
2019-05-06T12:51:36.038Z,2.50
2019-05-06T12:54:04.688Z,2.77
2019-05-06T12:56:33.221Z,2.40
2019-05-06T12:59:02.255Z,2.23
2019-05-06T13:01:33.927Z,2.60
2019-05-06T13:04:04.115Z,2.50
2019-05-06T13:06:33.413Z,2.40
2019-05-06T13:09:05.013Z,2.33
2019-05-06T13:11:32.138Z,2.53
2019-05-06T13:14:03.455Z,2.67
2019-05-06T13:16:33.251Z,2.73
2019-05-06T13:19:03.397Z,2.40
2019-05-06T13:21:32.724Z,2.67
2019-05-06T13:24:04.566Z,2.80
2019-05-06T13:26:33.250Z,2.87
2019-05-06T13:29:04.369Z,3.00
2019-05-06T13:31:33.097Z,2.80
2019-05-06T13:34:08.719Z,2.80
2019-05-06T13:36:37.218Z,2.33
2019-05-06T13:39:13.879Z,2.77
2019-05-06T13:41:37.139Z,2.87
2019-05-06T13:44:10.381Z,2.20
2019-05-06T13:46:40.610Z,2.40
2019-05-06T13:49:13.239Z,2.50
2019-05-06T13:51:46.052Z,2.93
2019-05-06T13:54:16.137Z,2.40
2019-05-06T13:56:44.758Z,2.40
2019-05-06T13:59:13.307Z,2.10
2019-05-06T14:01:44.255Z,2.10
2019-05-06T14:04:14.439Z,2.27
2019-05-06T14:06:43.414Z,2.40
2019-05-06T14:09:28.073Z,2.50
2019-05-06T14:11:42.423Z,2.57
2019-05-06T14:14:12.513Z,2.17
2019-05-06T14:16:42.715Z,2.10
2019-05-06T14:19:13.230Z,2.10
2019-05-06T14:21:43.201Z,2.30
2019-05-06T14:24:13.287Z,2.17
2019-05-06T14:26:44.709Z,2.43
2019-05-06T14:29:17.866Z,2.03
2019-05-06T14:31:53.765Z,2.10
2019-05-06T14:34:22.989Z,2.33
2019-05-06T14:36:53.433Z,2.10
2019-05-06T14:39:44.744Z,2.03
2019-05-06T14:41:59.553Z,2.17
2019-05-06T14:44:28.041Z,1.93
2019-05-06T14:47:00.756Z,2.70
2019-05-06T14:49:29.461Z,2.10
2019-05-06T14:51:58.003Z,1.80
2019-05-06T14:54:26.591Z,2.03
2019-05-06T14:57:02.735Z,2.00
2019-05-06T14:59:32.967Z,2.40
2019-05-06T15:02:02.599Z,2.10
2019-05-06T15:04:32.504Z,2.10
2019-05-06T15:07:02.135Z,2.30
2019-05-06T15:09:32.956Z,2.00
2019-05-06T15:12:02.331Z,2.00
2019-05-06T15:14:33.128Z,1.87
2019-05-06T15:17:02.246Z,1.90
2019-05-06T15:19:30.924Z,1.90
2019-05-06T15:21:59.538Z,1.90
2019-05-06T15:24:28.053Z,2.03
2019-05-06T15:26:56.617Z,1.87
2019-05-06T15:29:25.156Z,2.17
2019-05-06T15:31:55.454Z,2.20
2019-05-06T15:34:33.423Z,2.20
2019-05-06T15:37:19.066Z,2.10
2019-05-06T15:39:47.618Z,2.20
2019-05-06T15:42:16.112Z,2.50
2019-05-06T15:44:44.677Z,2.50
2019-05-06T15:47:13.358Z,2.33
2019-05-06T15:49:42.044Z,2.20
2019-05-06T15:52:12.473Z,2.30
2019-05-06T15:54:43.040Z,2.30
2019-05-06T15:57:11.253Z,2.53
2019-05-06T15:59:42.188Z,2.70
2019-05-06T16:02:10.170Z,2.40
2019-05-06T16:04:38.679Z,2.27
2019-05-06T16:07:08.049Z,2.90
2019-05-06T16:09:36.609Z,2.63
2019-05-06T16:12:05.246Z,2.47
2019-05-06T16:14:34.831Z,2.30
2019-05-06T16:17:05.387Z,2.30
2019-05-06T16:19:34.029Z,2.33
2019-05-06T16:22:04.118Z,2.60
2019-05-06T16:24:42.854Z,2.30
2019-05-06T16:27:12.436Z,2.40
2019-05-06T16:29:42.878Z,2.23
2019-05-06T16:32:11.382Z,2.13
2019-05-06T16:34:39.917Z,2.17
2019-05-06T16:37:08.503Z,2.40
2019-05-06T16:39:37.145Z,2.73
2019-05-06T16:42:05.842Z,2.40
2019-05-06T16:44:34.419Z,2.50
2019-05-06T16:47:03.120Z,2.60
2019-05-06T16:49:33.534Z,2.50
2019-05-06T16:52:02.679Z,3.93
2019-05-06T16:54:31.568Z,3.10
2019-05-06T16:57:03.119Z,3.17
2019-05-06T16:59:33.455Z,2.63
2019-05-06T17:02:03.496Z,2.80
2019-05-06T17:04:33.697Z,2.17
2019-05-06T17:07:03.083Z,2.33
2019-05-06T17:09:32.743Z,2.77
2019-05-06T17:12:04.451Z,2.20
2019-05-06T17:14:32.536Z,2.90
2019-05-06T17:17:03.180Z,3.63
2019-05-06T17:19:32.433Z,4.00
2019-05-06T17:22:03.089Z,3.03
2019-05-06T17:24:33.098Z,3.10
2019-05-06T17:27:02.730Z,3.37
2019-05-06T17:29:42.786Z,7.93
2019-05-06T17:32:13.176Z,5.07
2019-05-06T17:34:43.522Z,3.73
2019-05-06T17:37:29.825Z,2.80
2019-05-06T17:40:08.035Z,3.00
2019-05-06T17:42:28.754Z,3.23
2019-05-06T17:44:57.260Z,2.93
2019-05-06T17:47:32.877Z,3.53
2019-05-06T17:50:02.813Z,3.60
2019-05-06T17:52:33.386Z,4.20
2019-05-06T17:55:02.900Z,3.40
2019-05-06T17:57:33.096Z,3.17
2019-05-06T18:00:03.251Z,3.10
2019-05-06T18:02:33.044Z,2.40
2019-05-06T18:05:02.831Z,2.17
2019-05-06T18:07:32.666Z,2.20
2019-05-06T18:10:03.013Z,1.60
2019-05-06T18:12:32.842Z,1.80
2019-05-06T18:15:02.715Z,1.60
2019-05-06T18:17:33.158Z,1.80
2019-05-06T18:20:02.933Z,1.90
2019-05-06T18:22:32.758Z,1.67
2019-05-06T18:25:02.240Z,1.77
2019-05-06T18:27:32.559Z,1.70
2019-05-06T18:30:13.405Z,2.00
2019-05-06T18:32:33.137Z,2.00
2019-05-06T18:35:02.715Z,1.80
2019-05-06T18:37:33.178Z,2.00
2019-05-06T18:40:01.750Z,2.20
2019-05-06T18:42:30.321Z,1.73
2019-05-06T18:44:58.878Z,1.67
2019-05-06T18:47:27.427Z,2.00
2019-05-06T18:49:55.977Z,2.40
2019-05-06T18:52:24.454Z,1.80
2019-05-06T18:54:53.033Z,1.83
2019-05-06T18:57:22.608Z,2.00
2019-05-06T18:59:53.264Z,4.57
2019-05-06T19:02:22.910Z,4.00
2019-05-06T19:04:55.603Z,2.23
2019-05-06T19:07:24.212Z,2.57
2019-05-06T19:09:54.361Z,2.47
2019-05-06T19:12:31.739Z,2.67
2019-05-06T19:14:53.184Z,2.77
2019-05-06T19:17:22.485Z,2.20
2019-05-06T19:19:52.060Z,2.27
2019-05-06T19:22:22.908Z,2.80
2019-05-06T19:24:52.097Z,3.83
2019-05-06T19:27:24.681Z,4.20
2019-05-06T19:29:54.258Z,3.00
2019-05-06T19:32:22.580Z,2.80
2019-05-06T19:34:52.987Z,2.90
2019-05-06T19:37:23.288Z,2.67
2019-05-06T19:39:52.578Z,2.40
2019-05-06T19:42:22.356Z,2.43
2019-05-06T19:44:52.784Z,2.70
2019-05-06T19:47:21.402Z,2.50
2019-05-06T19:49:52.997Z,2.20
2019-05-06T19:52:21.136Z,2.33
2019-05-06T19:54:52.035Z,5.03
2019-05-06T19:57:20.592Z,2.97
2019-05-06T19:59:49.185Z,3.10
2019-05-06T20:02:17.772Z,3.50
2019-05-06T20:04:48.119Z,3.67
2019-05-06T20:07:22.739Z,3.63
2019-05-06T20:10:04.726Z,3.63
2019-05-06T20:12:34.993Z,6.63
2019-05-06T20:15:21.917Z,3.73
2019-05-06T20:17:52.076Z,4.37
2019-05-06T20:20:22.347Z,3.83
2019-05-06T20:22:50.861Z,3.87
2019-05-06T20:25:19.468Z,3.27
2019-05-06T20:27:48.048Z,3.90
2019-05-06T20:30:16.645Z,4.37
2019-05-06T20:32:45.388Z,4.33
2019-05-06T20:35:14.061Z,2.63
2019-05-06T20:37:42.690Z,2.60
2019-05-06T20:40:14.220Z,2.90
2019-05-06T20:42:42.658Z,2.40
2019-05-06T20:45:12.819Z,3.13
2019-05-06T20:47:42.917Z,2.93
2019-05-06T20:50:13.257Z,2.73
2019-05-06T20:52:42.526Z,3.10
2019-05-06T20:55:15.212Z,2.70
2019-05-06T20:57:42.327Z,3.73
2019-05-06T21:00:12.850Z,4.20
2019-05-06T21:02:42.553Z,3.20
2019-05-06T21:05:13.865Z,3.03
2019-05-06T21:07:43.258Z,2.80
2019-05-06T21:10:12.736Z,3.17
2019-05-06T21:12:42.359Z,2.73
2019-05-06T21:15:13.498Z,2.60
2019-05-06T21:17:45.439Z,2.83
2019-05-06T21:20:14.556Z,3.00
2019-05-06T21:22:43.100Z,2.90
2019-05-06T21:25:15.012Z,2.83
2019-05-06T21:27:49.490Z,2.80
2019-05-06T21:30:25.041Z,2.40
2019-05-06T21:32:57.723Z,11.10
2019-05-06T21:35:33.247Z,6.27
2019-05-06T21:38:04.849Z,3.47
2019-05-06T21:40:38.548Z,3.37
2019-05-06T21:43:09.959Z,2.90
2019-05-06T21:45:39.322Z,2.80
2019-05-06T21:48:08.205Z,2.00
2019-05-06T21:50:37.119Z,2.60
2019-05-06T21:53:05.806Z,2.20
2019-05-06T21:55:35.779Z,2.70
2019-05-06T21:58:04.469Z,2.40
2019-05-06T22:00:43.198Z,2.40
2019-05-06T22:03:13.652Z,2.60
2019-05-06T22:05:42.319Z,2.60
2019-05-06T22:08:12.866Z,2.60
2019-05-06T22:10:42.122Z,2.43
2019-05-06T22:13:14.258Z,2.00
2019-05-06T22:15:42.150Z,2.30
2019-05-06T22:18:12.493Z,2.40
2019-05-06T22:20:58.523Z,2.40
2019-05-06T22:23:28.968Z,1.80
2019-05-06T22:26:08.554Z,2.10
2019-05-06T22:28:27.727Z,2.40
2019-05-06T22:30:56.257Z,2.60
2019-05-06T22:33:24.939Z,2.23
2019-05-06T22:35:54.914Z,2.20
2019-05-06T22:38:23.534Z,2.30
2019-05-06T22:40:52.950Z,2.50
2019-05-06T22:43:22.020Z,2.57
2019-05-06T22:45:50.618Z,2.20
2019-05-06T22:48:19.174Z,2.47
2019-05-06T22:50:47.699Z,2.50
2019-05-06T22:53:16.307Z,2.23
2019-05-06T22:55:44.848Z,2.17
2019-05-06T22:58:13.335Z,2.13
2019-05-06T23:00:43.475Z,2.10
2019-05-06T23:03:16.442Z,2.40
2019-05-06T23:05:44.964Z,2.10
2019-05-06T23:08:13.556Z,2.20
2019-05-06T23:10:42.407Z,2.03
2019-05-06T23:13:12.392Z,2.00
2019-05-06T23:15:42.088Z,2.00
2019-05-06T23:18:10.815Z,2.13
2019-05-06T23:20:39.477Z,2.17
2019-05-06T23:23:08.026Z,1.60
2019-05-06T23:25:36.641Z,2.30
2019-05-06T23:28:05.367Z,2.00
2019-05-06T23:30:33.955Z,1.90
2019-05-06T23:33:02.605Z,1.97
2019-05-06T23:35:31.205Z,1.90
2019-05-06T23:38:35.464Z,1.77
2019-05-06T23:41:42.181Z,2.17
2019-05-06T23:44:46.370Z,1.90
2019-05-06T23:47:52.973Z,1.77
2019-05-06T23:50:56.860Z,1.90
2019-05-06T23:54:04.695Z,1.80
2019-05-06T23:56:44.391Z,1.70
2019-05-06T23:59:15.914Z,2.20
